Hovedside
METAR-TAF:

METAR-TAF

Lufthavner :

Karleby, Finland

Kronoby lufthavn

breddegrad: 63-43N, lengdegrad: 023-09E, høyde over havet: 25 m

Gjeldene værobservasjon

Denne rapporten ble laget for 20 minutter siden, klokken 22:20 UTC
Vind 3 kt fra Nord
Temperatur 15°C
Luftfuktighet 88%
Trykk 1015 hPa
Sikt 10 km eller mer
Brutte skyer i en høyde av 2000 ft
Brutte skyer i en høyde av 2500 ft

METAR: EFKK 242220Z AUTO 01003KT 9999 BKN020 BKN025 15/13 Q1015

Tid: 01:40 (22:40 UTC)

Varsel

Denne rapporten ble laget for 2 timer og 14 minutter siden, klokken 20:26 UTC
Varsel gyldig fra 24. klokken 21 UTC til 24. klokken 23 UTC
Vind 2 kt fra skiftende retning
Sikt 10 km eller mer
Brutte skyer i en høyde av 2000 ft

TAF: EFKK 242026Z 2421/2423 VRB02KT 9999 BKN020

Værobservasjoner og værvarsel for over 4000 flyplasser (METAR- og TAF-rapporter).

Tilgjengelige stasjoner er representert av de røde og gule prikkene på kartet.

Hold musepekeren over prikken for å se navnet på stasjonen.

Klikk så for å se værobservasjoner og -varsler.

For å forandre kartet kan du klikke på den grønne knappen med svart kryss for å zoome inn, på den grønne knappen med strek for å zoome ut, eller på de grønne pilene for å se tilstøtende kart.


METAR-TAF: